Time,TemperatureF,DewpointF,PressureIn,WindDirection,WindDirectionDegrees,WindSpeedMPH,WindSpeedGustMPH,Humidity,HourlyPrecipIn,Conditions,Clouds,dailyrainin,SolarRadiationWatts/m^2,SoftwareType,DateUTC
2013-04-05 00:02:00,55.0,37.0,29.91,SW,229,9.0,13.0,51,-99.99,,,-99.99,0.000000,,2013-04-05 06:02:00,
2013-04-05 00:12:00,54.0,39.0,29.90,SW,230,8.0,11.0,56,-99.99,,,-99.99,0.000000,,2013-04-05 06:12:00,
2013-04-05 00:21:00,53.0,39.0,29.91,SW,217,8.0,12.0,60,-99.99,,,-99.99,0.000000,,2013-04-05 06:21:00,
2013-04-05 00:32:00,53.0,40.0,29.91,SW,232,8.0,10.0,60,-99.99,,,-99.99,0.000000,,2013-04-05 06:32:00,
2013-04-05 00:41:00,53.0,40.0,29.91,SW,236,4.0,6.0,61,-99.99,,,-99.99,0.000000,,2013-04-05 06:41:00,
2013-04-05 00:52:00,52.0,40.0,29.91,South,170,6.0,7.0,63,-99.99,,,-99.99,0.000000,,2013-04-05 06:52:00,
2013-04-05 01:02:00,53.0,39.0,29.90,SSE,155,7.0,10.0,60,-99.99,,,-99.99,-0.100000,,2013-04-05 07:02:00,
2013-04-05 01:11:00,52.0,40.0,29.91,South,183,8.0,10.0,62,-99.99,,,-99.99,0.000000,,2013-04-05 07:11:00,
2013-04-05 01:22:00,53.0,39.0,29.90,South,186,9.0,14.0,59,-99.99,,,-99.99,0.000000,,2013-04-05 07:22:00,
2013-04-05 01:31:00,53.0,39.0,29.89,South,171,9.0,11.0,58,-99.99,,,-99.99,-0.100000,,2013-04-05 07:31:00,
2013-04-05 01:42:00,53.0,39.0,29.90,SSW,207,9.0,11.0,59,-99.99,,,-99.99,0.000000,,2013-04-05 07:42:00,
2013-04-05 01:52:00,52.0,39.0,29.91,SSW,211,9.0,11.0,60,-99.99,,,-99.99,0.000000,,2013-04-05 07:52:00,
2013-04-05 02:02:00,52.0,39.0,29.91,SW,219,11.0,13.0,61,-99.99,,,-99.99,0.000000,,2013-04-05 08:02:00,
2013-04-05 02:21:00,51.0,42.0,29.92,SW,214,11.0,13.0,70,-99.99,,,-99.99,0.000000,,2013-04-05 08:21:00,
2013-04-05 02:32:00,51.0,41.0,29.92,SW,228,14.0,20.0,70,-99.99,,,-99.99,0.000000,,2013-04-05 08:32:00,
2013-04-05 02:41:00,50.0,42.0,29.93,SW,232,16.0,20.0,72,-99.99,,,-99.99,0.000000,,2013-04-05 08:41:00,
2013-04-05 02:52:00,49.0,42.0,29.93,WSW,237,19.0,26.0,76,-99.99,,,-99.99,0.000000,,2013-04-05 08:52:00,
2013-04-05 03:02:00,48.0,42.0,29.94,SW,233,17.0,22.0,81,-99.99,,,-99.99,0.000000,,2013-04-05 09:02:00,
2013-04-05 03:11:00,47.0,43.0,29.93,SW,215,12.0,15.0,84,-99.99,,,-99.99,0.100000,,2013-04-05 09:11:00,
2013-04-05 03:21:00,47.0,43.0,29.93,SSW,209,12.0,15.0,85,-99.99,,,-99.99,0.000000,,2013-04-05 09:21:00,
2013-04-05 03:32:00,47.0,43.0,29.92,SSW,196,12.0,15.0,86,-99.99,,,-99.99,-0.100000,,2013-04-05 09:32:00,
2013-04-05 03:42:00,47.0,43.0,29.91,South,178,12.0,15.0,85,-99.99,,,-99.99,0.000000,,2013-04-05 09:42:00,
2013-04-05 03:52:00,47.0,42.0,29.90,SSE,165,12.0,16.0,83,-99.99,,,-99.99,-0.200000,,2013-04-05 09:52:00,
2013-04-05 04:02:00,47.0,42.0,29.90,South,171,15.0,19.0,81,-99.99,,,-99.99,-0.100000,,2013-04-05 10:02:00,
2013-04-05 04:12:00,47.0,41.0,29.90,South,170,17.0,22.0,80,-99.99,,,-99.99,0.000000,,2013-04-05 10:12:00,
2013-04-05 04:22:00,47.0,41.0,29.89,SSE,162,16.0,21.0,78,-99.99,,,-99.99,0.000000,,2013-04-05 10:22:00,
2013-04-05 04:32:00,47.0,41.0,29.89,South,175,15.0,20.0,78,-99.99,,,-99.99,0.000000,,2013-04-05 10:32:00,
2013-04-05 04:42:00,47.0,40.0,29.88,SSE,164,16.0,22.0,76,-99.99,,,-99.99,0.000000,,2013-04-05 10:42:00,
2013-04-05 04:52:00,48.0,40.0,29.87,SSE,165,13.0,18.0,74,-99.99,,,-99.99,0.000000,,2013-04-05 10:52:00,
2013-04-05 05:02:00,48.0,40.0,29.88,South,172,16.0,19.0,72,-99.99,,,-99.99,0.000000,,2013-04-05 11:02:00,
2013-04-05 05:11:00,48.0,40.0,29.87,South,172,13.0,17.0,74,-99.99,,,-99.99,0.000000,,2013-04-05 11:11:00,
2013-04-05 05:21:00,48.0,40.0,29.87,South,170,15.0,18.0,73,-99.99,,,-99.99,0.000000,,2013-04-05 11:21:00,
2013-04-05 05:32:00,48.0,40.0,29.86,SSE,166,15.0,20.0,72,-99.99,,,-99.99,-0.100000,,2013-04-05 11:32:00,
2013-04-05 05:41:00,48.0,39.0,29.86,South,174,18.0,21.0,72,-99.99,,,-99.99,0.000000,,2013-04-05 11:41:00,
2013-04-05 05:51:00,47.0,40.0,29.86,South,177,15.0,18.0,74,-99.99,,,-99.99,0.000000,,2013-04-05 11:51:00,
2013-04-05 06:02:00,48.0,39.0,29.86,South,182,15.0,19.0,72,-99.99,,,-99.99,0.000000,,2013-04-05 12:02:00,
2013-04-05 06:11:00,49.0,39.0,29.86,South,185,16.0,20.0,68,-99.99,,,-99.99,0.000000,,2013-04-05 12:11:00,
2013-04-05 06:22:00,49.0,39.0,29.86,South,188,17.0,22.0,66,-99.99,,,-99.99,-0.100000,,2013-04-05 12:22:00,
2013-04-05 06:32:00,49.0,39.0,29.87,SSW,197,18.0,21.0,66,-99.99,,,-99.99,0.000000,,2013-04-05 12:32:00,
2013-04-05 06:42:00,49.0,39.0,29.87,SSW,199,18.0,23.0,68,-99.99,,,-99.99,0.000000,,2013-04-05 12:42:00,
2013-04-05 06:51:00,49.0,39.0,29.87,SSW,203,17.0,21.0,69,-99.99,,,-99.99,-0.100000,,2013-04-05 12:51:00,
2013-04-05 07:02:00,49.0,39.0,29.88,SSW,206,19.0,23.0,68,-99.99,,,-99.99,0.000000,,2013-04-05 13:02:00,
2013-04-05 07:11:00,49.0,39.0,29.88,SSW,202,19.0,25.0,68,-99.99,,,-99.99,0.100000,,2013-04-05 13:11:00,
2013-04-05 07:21:00,48.0,39.0,29.88,SSW,207,15.0,18.0,71,-99.99,,,-99.99,0.500000,,2013-04-05 13:21:00,
2013-04-05 07:32:00,47.0,40.0,29.88,SSW,205,16.0,21.0,73,-99.99,,,-99.99,1.900000,,2013-04-05 13:32:00,
2013-04-05 07:41:00,47.0,40.0,29.88,SSW,206,16.0,20.0,73,-99.99,,,-99.99,4.700000,,2013-04-05 13:41:00,
2013-04-05 07:52:00,47.0,40.0,29.88,SSW,207,15.0,21.0,75,-99.99,,,-99.99,9.800000,,2013-04-05 13:52:00,
2013-04-05 08:02:00,48.0,40.0,29.89,SW,215,17.0,23.0,73,-99.99,,,-99.99,11.100000,,2013-04-05 14:02:00,
2013-04-05 08:11:00,48.0,40.0,29.89,SSW,212,21.0,25.0,72,-99.99,,,-99.99,10.800000,,2013-04-05 14:11:00,
2013-04-05 08:21:00,47.0,40.0,29.89,SW,214,19.0,22.0,75,-99.99,,,-99.99,20.900000,,2013-04-05 14:21:00,
2013-04-05 08:35:00,47.0,40.0,29.90,SW,218,19.0,23.0,76,-99.99,,,-99.99,22.400000,,2013-04-05 14:35:00,
2013-04-05 08:42:00,47.0,40.0,29.90,SSW,212,19.0,24.0,76,-99.99,,,-99.99,51.599998,,2013-04-05 14:42:00,
2013-04-05 08:51:00,47.0,40.0,29.90,SSW,212,19.0,24.0,75,-99.99,,,-99.99,64.599998,,2013-04-05 14:51:00,
2013-04-05 09:02:00,47.0,40.0,29.91,SW,215,22.0,26.0,74,-99.99,,,-99.99,58.400002,,2013-04-05 15:02:00,
2013-04-05 09:11:00,47.0,40.0,29.91,SW,217,21.0,27.0,74,-99.99,,,-99.99,74.199997,,2013-04-05 15:11:00,
2013-04-05 09:22:00,47.0,40.0,29.91,SSW,213,20.0,26.0,73,-99.99,,,-99.99,97.800003,,2013-04-05 15:22:00,
2013-04-05 09:32:00,48.0,39.0,29.91,SSW,207,23.0,27.0,72,-99.99,,,-99.99,118.300003,,2013-04-05 15:32:00,
2013-04-05 09:42:00,48.0,39.0,29.91,SSW,203,23.0,29.0,71,-99.99,,,-99.99,154.899994,,2013-04-05 15:42:00,
2013-04-05 09:52:00,48.0,39.0,29.91,SSW,205,22.0,26.0,71,-99.99,,,-99.99,146.100006,,2013-04-05 15:52:00,
2013-04-05 10:02:00,48.0,39.0,29.92,SW,214,22.0,28.0,71,-99.99,,,-99.99,181.800003,,2013-04-05 16:02:00,
2013-04-05 10:12:00,48.0,39.0,29.92,SW,226,23.0,30.0,71,-99.99,,,-99.99,219.699997,,2013-04-05 16:12:00,
2013-04-05 10:22:00,48.0,39.0,29.92,SW,227,25.0,33.0,70,-99.99,,,-99.99,336.500000,,2013-04-05 16:22:00,
2013-04-05 10:32:00,49.0,38.0,29.93,SW,234,28.0,37.0,67,-99.99,,,-99.99,423.899994,,2013-04-05 16:32:00,
2013-04-05 10:41:00,48.0,38.0,29.94,WSW,241,30.0,40.0,68,-99.99,,,-99.99,343.799988,,2013-04-05 16:41:00,
2013-04-05 10:52:00,48.0,39.0,29.94,SW,231,32.0,40.0,70,-99.99,,,-99.99,487.100006,,2013-04-05 16:52:00,
2013-04-05 11:02:00,48.0,38.0,29.94,WSW,240,27.0,38.0,69,-99.99,,,-99.99,385.100006,,2013-04-05 17:02:00,
2013-04-05 11:12:00,49.0,38.0,29.94,WSW,238,32.0,41.0,66,-99.99,,,-99.99,594.400024,,2013-04-05 17:12:00,
2013-04-05 11:22:00,50.0,39.0,29.94,WSW,241,30.0,37.0,65,-99.99,,,-99.99,728.500000,,2013-04-05 17:22:00,
2013-04-05 11:31:00,51.0,38.0,29.95,WSW,242,30.0,39.0,61,-99.99,,,-99.99,750.099976,,2013-04-05 17:31:00,
2013-04-05 11:43:00,50.0,37.0,29.95,SW,232,28.0,36.0,60,-99.99,,,-99.99,758.599976,,2013-04-05 17:43:00,
2013-04-05 11:51:00,50.0,36.0,29.96,SW,231,26.0,36.0,59,-99.99,,,-99.99,218.000000,,2013-04-05 17:51:00,
2013-04-05 12:02:00,50.0,38.0,29.95,SW,225,29.0,37.0,63,-99.99,,,-99.99,857.000000,,2013-04-05 18:02:00,
2013-04-05 12:11:00,50.0,36.0,29.95,WSW,237,29.0,38.0,58,-99.99,,,-99.99,510.299988,,2013-04-05 18:11:00,
2013-04-05 12:22:00,48.0,35.0,29.95,WSW,241,28.0,33.0,60,-99.99,,,-99.99,318.399994,,2013-04-05 18:22:00,
2013-04-05 12:32:00,50.0,35.0,29.94,WSW,245,27.0,38.0,56,-99.99,,,-99.99,632.099976,,2013-04-05 18:32:00,
2013-04-05 12:41:00,52.0,35.0,29.94,WSW,248,27.0,35.0,52,-99.99,,,-99.99,844.000000,,2013-04-05 18:41:00,
2013-04-05 12:52:00,52.0,34.0,29.94,WSW,239,30.0,37.0,50,-99.99,,,-99.99,374.600006,,2013-04-05 18:52:00,
2013-04-05 13:02:00,51.0,33.0,29.94,SW,233,30.0,39.0,50,-99.99,,,-99.99,503.700012,,2013-04-05 19:02:00,
2013-04-05 13:11:00,52.0,35.0,29.94,SW,227,29.0,40.0,52,-99.99,,,-99.99,605.299988,,2013-04-05 19:11:00,
2013-04-05 13:21:00,50.0,34.0,29.94,WSW,239,30.0,38.0,52,-99.99,,,-99.99,327.799988,,2013-04-05 19:21:00,
2013-04-05 13:32:00,51.0,34.0,29.93,SW,236,32.0,40.0,52,-99.99,,,-99.99,361.100006,,2013-04-05 19:32:00,
2013-04-05 13:41:00,52.0,34.0,29.93,SW,233,30.0,38.0,51,-99.99,,,-99.99,505.399994,,2013-04-05 19:41:00,
2013-04-05 13:51:00,53.0,35.0,29.93,SW,232,30.0,40.0,50,-99.99,,,-99.99,828.000000,,2013-04-05 19:51:00,
2013-04-05 14:02:00,53.0,33.0,29.93,WSW,238,33.0,41.0,46,-99.99,,,-99.99,842.000000,,2013-04-05 20:02:00,
2013-04-05 14:10:00,53.0,33.0,29.93,SW,236,30.0,38.0,46,-99.99,,,-99.99,700.099976,,2013-04-05 20:10:00,
2013-04-05 14:21:00,54.0,34.0,29.93,WSW,238,30.0,39.0,45,-99.99,,,-99.99,796.099976,,2013-04-05 20:21:00,
2013-04-05 14:31:00,55.0,33.0,29.93,WSW,246,31.0,38.0,43,-99.99,,,-99.99,588.000000,,2013-04-05 20:31:00,
2013-04-05 14:42:00,54.0,32.0,29.93,WSW,246,26.0,37.0,44,-99.99,,,-99.99,447.799988,,2013-04-05 20:42:00,
2013-04-05 14:51:00,55.0,32.0,29.92,WSW,252,28.0,36.0,42,-99.99,,,-99.99,828.000000,,2013-04-05 20:51:00,
2013-04-05 15:01:00,54.0,31.0,29.93,WSW,250,26.0,32.0,41,-99.99,,,-99.99,519.200012,,2013-04-05 21:01:00,
2013-04-05 15:11:00,55.0,30.0,29.93,WSW,247,26.0,37.0,39,-99.99,,,-99.99,268.299988,,2013-04-05 21:11:00,
2013-04-05 15:22:00,55.0,30.0,29.93,WSW,248,25.0,33.0,38,-99.99,,,-99.99,740.900024,,2013-04-05 21:22:00,
2013-04-05 15:32:00,57.0,29.0,29.92,WSW,251,29.0,37.0,35,-99.99,,,-99.99,869.000000,,2013-04-05 21:32:00,
2013-04-05 15:42:00,57.0,29.0,29.92,WSW,245,32.0,41.0,34,-99.99,,,-99.99,824.000000,,2013-04-05 21:42:00,
2013-04-05 15:52:00,57.0,28.0,29.92,WSW,245,32.0,38.0,34,-99.99,,,-99.99,772.900024,,2013-04-05 21:52:00,
2013-04-05 16:02:00,57.0,29.0,29.92,WSW,244,31.0,38.0,34,-99.99,,,-99.99,769.500000,,2013-04-05 22:02:00,
2013-04-05 16:12:00,57.0,28.0,29.92,WSW,244,29.0,38.0,33,-99.99,,,-99.99,615.599976,,2013-04-05 22:12:00,
2013-04-05 16:22:00,57.0,28.0,29.92,WSW,251,27.0,35.0,32,-99.99,,,-99.99,742.200012,,2013-04-05 22:22:00,
2013-04-05 16:32:00,58.0,28.0,29.91,WSW,239,31.0,39.0,31,-99.99,,,-99.99,684.200012,,2013-04-05 22:32:00,
2013-04-05 16:42:00,57.0,28.0,29.91,WSW,251,29.0,36.0,33,-99.99,,,-99.99,650.200012,,2013-04-05 22:42:00,
2013-04-05 16:52:00,57.0,27.0,29.91,WSW,248,30.0,38.0,32,-99.99,,,-99.99,621.799988,,2013-04-05 22:52:00,
2013-04-05 17:02:00,57.0,27.0,29.91,WSW,249,30.0,38.0,31,-99.99,,,-99.99,595.500000,,2013-04-05 23:02:00,
2013-04-05 17:11:00,57.0,27.0,29.91,WSW,249,30.0,38.0,32,-99.99,,,-99.99,570.799988,,2013-04-05 23:11:00,
2013-04-05 17:21:00,57.0,27.0,29.91,WSW,246,29.0,37.0,31,-99.99,,,-99.99,551.700012,,2013-04-05 23:21:00,
2013-04-05 17:32:00,57.0,25.0,29.91,WSW,241,31.0,39.0,29,-99.99,,,-99.99,532.099976,,2013-04-05 23:32:00,
2013-04-05 17:41:00,57.0,26.0,29.91,WSW,240,29.0,38.0,30,-99.99,,,-99.99,470.100006,,2013-04-05 23:41:00,
2013-04-05 17:52:00,57.0,26.0,29.92,WSW,251,30.0,39.0,30,-99.99,,,-99.99,433.899994,,2013-04-05 23:52:00,
2013-04-05 18:02:00,56.0,26.0,29.92,WSW,250,29.0,35.0,30,-99.99,,,-99.99,360.100006,,2013-04-06 00:02:00,
2013-04-05 18:11:00,56.0,25.0,29.92,WSW,242,30.0,38.0,30,-99.99,,,-99.99,356.200012,,2013-04-06 00:11:00,
2013-04-05 18:21:00,56.0,26.0,29.92,WSW,242,25.0,32.0,31,-99.99,,,-99.99,338.600006,,2013-04-06 00:21:00,
2013-04-05 18:32:00,56.0,25.0,29.93,WSW,246,25.0,32.0,30,-99.99,,,-99.99,315.899994,,2013-04-06 00:32:00,
2013-04-05 18:41:00,56.0,26.0,29.93,WSW,248,22.0,29.0,31,-99.99,,,-99.99,244.699997,,2013-04-06 00:41:00,
2013-04-05 18:51:00,56.0,26.0,29.93,WSW,253,27.0,34.0,31,-99.99,,,-99.99,231.199997,,2013-04-06 00:51:00,
2013-04-05 19:02:00,55.0,26.0,29.92,WSW,250,25.0,31.0,33,-99.99,,,-99.99,197.300003,,2013-04-06 01:02:00,
2013-04-05 19:11:00,55.0,27.0,29.93,WSW,252,22.0,33.0,34,-99.99,,,-99.99,165.699997,,2013-04-06 01:11:00,
2013-04-05 19:21:00,54.0,28.0,29.93,WSW,242,23.0,28.0,36,-99.99,,,-99.99,141.100006,,2013-04-06 01:21:00,
2013-04-05 19:32:00,54.0,27.0,29.93,WSW,252,19.0,25.0,36,-99.99,,,-99.99,112.099998,,2013-04-06 01:32:00,
2013-04-05 19:41:00,53.0,29.0,29.93,WSW,247,17.0,25.0,39,-99.99,,,-99.99,76.699997,,2013-04-06 01:41:00,
2013-04-05 19:52:00,52.0,30.0,29.93,SW,236,17.0,21.0,42,-99.99,,,-99.99,46.400002,,2013-04-06 01:52:00,
2013-04-05 20:02:00,52.0,30.0,29.93,WSW,240,15.0,20.0,43,-99.99,,,-99.99,18.900000,,2013-04-06 02:02:00,
2013-04-05 20:11:00,51.0,30.0,29.93,SW,235,16.0,19.0,44,-99.99,,,-99.99,6.400000,,2013-04-06 02:11:00,
2013-04-05 20:21:00,50.0,29.0,29.93,SW,232,14.0,17.0,44,-99.99,,,-99.99,2.800000,,2013-04-06 02:21:00,
2013-04-05 20:31:00,49.0,29.0,29.94,SW,229,15.0,18.0,46,-99.99,,,-99.99,0.600000,,2013-04-06 02:31:00,
2013-04-05 20:52:00,47.0,29.0,29.94,SW,223,14.0,17.0,48,-99.99,,,-99.99,0.000000,,2013-04-06 02:52:00,
2013-04-05 21:02:00,47.0,29.0,29.94,SW,220,14.0,17.0,49,-99.99,,,-99.99,0.000000,,2013-04-06 03:02:00,
2013-04-05 21:11:00,46.0,29.0,29.94,SSW,212,13.0,17.0,50,-99.99,,,-99.99,0.100000,,2013-04-06 03:11:00,
2013-04-05 21:21:00,45.0,30.0,29.95,SSW,197,13.0,15.0,55,-99.99,,,-99.99,0.000000,,2013-04-06 03:21:00,
2013-04-05 21:32:00,45.0,30.0,29.95,SSW,194,15.0,17.0,54,-99.99,,,-99.99,0.000000,,2013-04-06 03:32:00,
2013-04-05 21:42:00,46.0,30.0,29.96,SSW,198,16.0,19.0,53,-99.99,,,-99.99,0.000000,,2013-04-06 03:42:00,
2013-04-05 21:52:00,46.0,29.0,29.96,SSW,204,15.0,17.0,52,-99.99,,,-99.99,0.100000,,2013-04-06 03:52:00,
2013-04-05 22:02:00,45.0,29.0,29.97,SSW,208,15.0,18.0,51,-99.99,,,-99.99,0.000000,,2013-04-06 04:02:00,
2013-04-05 22:12:00,46.0,29.0,29.97,SSW,207,16.0,19.0,51,-99.99,,,-99.99,0.000000,,2013-04-06 04:12:00,
2013-04-05 22:22:00,46.0,29.0,29.97,SSW,207,16.0,19.0,52,-99.99,,,-99.99,-0.100000,,2013-04-06 04:22:00,
2013-04-05 22:32:00,45.0,29.0,29.97,SSW,212,16.0,19.0,52,-99.99,,,-99.99,0.000000,,2013-04-06 04:32:00,
2013-04-05 22:42:00,45.0,29.0,29.97,SSW,208,16.0,17.0,54,-99.99,,,-99.99,0.100000,,2013-04-06 04:42:00,
2013-04-05 22:52:00,44.0,29.0,29.97,SSW,209,14.0,17.0,55,-99.99,,,-99.99,0.000000,,2013-04-06 04:52:00,
2013-04-05 23:02:00,44.0,30.0,29.97,SSW,202,14.0,16.0,56,-99.99,,,-99.99,0.000000,,2013-04-06 05:02:00,
2013-04-05 23:11:00,44.0,29.0,29.98,SSW,192,15.0,19.0,55,-99.99,,,-99.99,-0.100000,,2013-04-06 05:11:00,
2013-04-05 23:21:00,46.0,29.0,29.98,South,185,14.0,18.0,51,-99.99,,,-99.99,0.000000,,2013-04-06 05:21:00,
2013-04-05 23:32:00,46.0,29.0,29.98,SSW,192,15.0,18.0,51,-99.99,,,-99.99,0.000000,,2013-04-06 05:32:00,
2013-04-05 23:42:00,45.0,29.0,29.98,SSW,198,15.0,18.0,51,-99.99,,,-99.99,0.000000,,2013-04-06 05:42:00,
2013-04-05 23:51:00,45.0,29.0,29.97,SSW,196,13.0,16.0,53,-99.99,,,-99.99,0.000000,,2013-04-06 05:51:00,